sensor_id;sensor_type;location;lat;lon;timestamp;P1;durP1;ratioP1;P2;durP2;ratioP2
635;SDS011;302;50.206;8.196;2022-08-14T00:00:56;6.78;;;6.28;;
635;SDS011;302;50.206;8.196;2022-08-14T00:03:22;6.57;;;6.10;;
635;SDS011;302;50.206;8.196;2022-08-14T00:05:48;6.80;;;6.30;;
635;SDS011;302;50.206;8.196;2022-08-14T00:08:13;7.13;;;6.50;;
635;SDS011;302;50.206;8.196;2022-08-14T00:10:38;6.63;;;6.13;;
635;SDS011;302;50.206;8.196;2022-08-14T00:13:04;6.87;;;6.37;;
635;SDS011;302;50.206;8.196;2022-08-14T00:15:31;6.65;;;6.15;;
635;SDS011;302;50.206;8.196;2022-08-14T00:17:59;6.97;;;6.38;;
635;SDS011;302;50.206;8.196;2022-08-14T00:20:26;7.40;;;6.90;;
635;SDS011;302;50.206;8.196;2022-08-14T00:22:52;7.18;;;6.68;;
635;SDS011;302;50.206;8.196;2022-08-14T00:25:17;7.47;;;6.93;;
635;SDS011;302;50.206;8.196;2022-08-14T00:27:42;7.80;;;7.20;;
635;SDS011;302;50.206;8.196;2022-08-14T00:30:08;7.90;;;7.30;;
635;SDS011;302;50.206;8.196;2022-08-14T00:32:34;7.63;;;7.03;;
635;SDS011;302;50.206;8.196;2022-08-14T00:34:59;8.37;;;7.77;;
635;SDS011;302;50.206;8.196;2022-08-14T00:37:26;9.23;;;8.40;;
635;SDS011;302;50.206;8.196;2022-08-14T00:39:51;8.53;;;7.83;;
635;SDS011;302;50.206;8.196;2022-08-14T00:42:18;10.13;;;9.30;;
635;SDS011;302;50.206;8.196;2022-08-14T00:44:43;8.57;;;7.88;;
635;SDS011;302;50.206;8.196;2022-08-14T00:47:08;9.27;;;8.63;;
635;SDS011;302;50.206;8.196;2022-08-14T00:49:34;8.03;;;7.43;;
635;SDS011;302;50.206;8.196;2022-08-14T00:52:00;9.82;;;9.13;;
635;SDS011;302;50.206;8.196;2022-08-14T00:54:25;9.73;;;8.60;;
635;SDS011;302;50.206;8.196;2022-08-14T00:56:51;9.30;;;8.60;;
635;SDS011;302;50.206;8.196;2022-08-14T00:59:16;8.87;;;8.17;;
635;SDS011;302;50.206;8.196;2022-08-14T01:01:41;9.20;;;8.40;;
635;SDS011;302;50.206;8.196;2022-08-14T01:04:07;8.40;;;7.70;;
635;SDS011;302;50.206;8.196;2022-08-14T01:06:32;10.00;;;9.20;;
635;SDS011;302;50.206;8.196;2022-08-14T01:09:01;9.27;;;8.57;;
635;SDS011;302;50.206;8.196;2022-08-14T01:11:26;8.88;;;8.23;;
635;SDS011;302;50.206;8.196;2022-08-14T01:13:51;8.97;;;8.27;;
635;SDS011;302;50.206;8.196;2022-08-14T01:16:21;8.48;;;7.78;;
635;SDS011;302;50.206;8.196;2022-08-14T01:18:46;8.83;;;8.13;;
635;SDS011;302;50.206;8.196;2022-08-14T01:21:34;9.05;;;8.35;;
635;SDS011;302;50.206;8.196;2022-08-14T01:24:00;8.73;;;8.05;;
635;SDS011;302;50.206;8.196;2022-08-14T01:26:26;9.23;;;8.43;;
635;SDS011;302;50.206;8.196;2022-08-14T01:28:53;9.60;;;8.90;;
635;SDS011;302;50.206;8.196;2022-08-14T01:31:20;9.43;;;8.73;;
635;SDS011;302;50.206;8.196;2022-08-14T01:33:46;8.90;;;8.20;;
635;SDS011;302;50.206;8.196;2022-08-14T01:36:12;9.27;;;8.65;;
635;SDS011;302;50.206;8.196;2022-08-14T01:38:39;9.50;;;8.80;;
635;SDS011;302;50.206;8.196;2022-08-14T01:41:06;9.68;;;8.98;;
635;SDS011;302;50.206;8.196;2022-08-14T01:43:40;8.75;;;8.15;;
635;SDS011;302;50.206;8.196;2022-08-14T01:46:07;9.43;;;8.73;;
635;SDS011;302;50.206;8.196;2022-08-14T01:48:35;9.32;;;8.65;;
635;SDS011;302;50.206;8.196;2022-08-14T01:51:00;9.30;;;8.60;;
635;SDS011;302;50.206;8.196;2022-08-14T01:53:26;8.87;;;8.20;;
635;SDS011;302;50.206;8.196;2022-08-14T01:55:53;9.00;;;8.30;;
635;SDS011;302;50.206;8.196;2022-08-14T01:58:21;9.85;;;9.05;;
635;SDS011;302;50.206;8.196;2022-08-14T02:00:48;9.55;;;8.85;;
635;SDS011;302;50.206;8.196;2022-08-14T02:03:18;9.00;;;8.20;;
635;SDS011;302;50.206;8.196;2022-08-14T02:05:43;8.33;;;7.73;;
635;SDS011;302;50.206;8.196;2022-08-14T02:08:08;10.47;;;9.67;;
635;SDS011;302;50.206;8.196;2022-08-14T02:10:33;8.47;;;7.87;;
635;SDS011;302;50.206;8.196;2022-08-14T02:12:59;9.30;;;8.60;;
635;SDS011;302;50.206;8.196;2022-08-14T02:15:24;9.40;;;8.70;;
635;SDS011;302;50.206;8.196;2022-08-14T02:17:50;9.03;;;8.43;;
635;SDS011;302;50.206;8.196;2022-08-14T02:20:15;9.70;;;9.00;;
635;SDS011;302;50.206;8.196;2022-08-14T02:22:41;9.70;;;8.90;;
635;SDS011;302;50.206;8.196;2022-08-14T02:25:07;9.20;;;8.40;;
635;SDS011;302;50.206;8.196;2022-08-14T02:27:32;9.17;;;8.50;;
635;SDS011;302;50.206;8.196;2022-08-14T02:29:57;9.17;;;8.47;;
635;SDS011;302;50.206;8.196;2022-08-14T02:32:23;9.67;;;8.97;;
635;SDS011;302;50.206;8.196;2022-08-14T02:34:48;9.23;;;8.53;;
635;SDS011;302;50.206;8.196;2022-08-14T02:37:13;9.13;;;8.43;;
635;SDS011;302;50.206;8.196;2022-08-14T02:39:41;8.68;;;8.00;;
635;SDS011;302;50.206;8.196;2022-08-14T02:42:08;9.38;;;8.48;;
635;SDS011;302;50.206;8.196;2022-08-14T02:44:33;10.05;;;9.25;;
635;SDS011;302;50.206;8.196;2022-08-14T02:46:59;10.03;;;9.23;;
635;SDS011;302;50.206;8.196;2022-08-14T02:49:24;10.23;;;9.43;;
635;SDS011;302;50.206;8.196;2022-08-14T02:51:53;10.60;;;9.70;;
635;SDS011;302;50.206;8.196;2022-08-14T02:54:19;10.20;;;9.30;;
635;SDS011;302;50.206;8.196;2022-08-14T02:56:44;10.50;;;9.60;;
635;SDS011;302;50.206;8.196;2022-08-14T02:59:09;10.27;;;9.47;;
635;SDS011;302;50.206;8.196;2022-08-14T03:01:35;10.27;;;9.47;;
635;SDS011;302;50.206;8.196;2022-08-14T03:04:00;9.30;;;8.60;;
635;SDS011;302;50.206;8.196;2022-08-14T03:06:26;9.80;;;9.10;;
635;SDS011;302;50.206;8.196;2022-08-14T03:08:52;10.40;;;9.57;;
635;SDS011;302;50.206;8.196;2022-08-14T03:11:17;10.55;;;9.75;;
635;SDS011;302;50.206;8.196;2022-08-14T03:13:47;9.55;;;8.85;;
635;SDS011;302;50.206;8.196;2022-08-14T03:16:15;10.20;;;9.40;;
635;SDS011;302;50.206;8.196;2022-08-14T03:18:43;9.10;;;8.40;;
635;SDS011;302;50.206;8.196;2022-08-14T03:21:15;10.15;;;9.43;;
635;SDS011;302;50.206;8.196;2022-08-14T03:23:41;10.07;;;9.23;;
635;SDS011;302;50.206;8.196;2022-08-14T03:26:08;10.18;;;9.38;;
635;SDS011;302;50.206;8.196;2022-08-14T03:28:33;11.23;;;10.35;;
635;SDS011;302;50.206;8.196;2022-08-14T03:30:58;9.85;;;9.13;;
635;SDS011;302;50.206;8.196;2022-08-14T03:33:24;9.77;;;9.07;;
635;SDS011;302;50.206;8.196;2022-08-14T03:35:49;9.80;;;9.10;;
635;SDS011;302;50.206;8.196;2022-08-14T03:38:15;9.77;;;9.07;;
635;SDS011;302;50.206;8.196;2022-08-14T03:40:42;10.52;;;9.60;;
635;SDS011;302;50.206;8.196;2022-08-14T03:43:09;9.23;;;8.48;;
635;SDS011;302;50.206;8.196;2022-08-14T03:45:34;9.53;;;8.80;;
635;SDS011;302;50.206;8.196;2022-08-14T03:48:03;10.47;;;9.60;;
635;SDS011;302;50.206;8.196;2022-08-14T03:50:34;9.20;;;8.27;;
635;SDS011;302;50.206;8.196;2022-08-14T03:53:00;8.47;;;7.87;;
635;SDS011;302;50.206;8.196;2022-08-14T03:55:25;10.33;;;9.33;;
635;SDS011;302;50.206;8.196;2022-08-14T03:57:52;9.65;;;8.95;;
635;SDS011;302;50.206;8.196;2022-08-14T04:00:17;9.63;;;8.93;;
635;SDS011;302;50.206;8.196;2022-08-14T04:02:43;9.95;;;9.15;;
635;SDS011;302;50.206;8.196;2022-08-14T04:05:09;9.50;;;8.60;;
635;SDS011;302;50.206;8.196;2022-08-14T04:07:34;10.67;;;9.77;;
635;SDS011;302;50.206;8.196;2022-08-14T04:10:02;10.40;;;9.52;;
635;SDS011;302;50.206;8.196;2022-08-14T04:12:27;10.00;;;9.20;;
635;SDS011;302;50.206;8.196;2022-08-14T04:14:52;10.68;;;9.88;;
635;SDS011;302;50.206;8.196;2022-08-14T04:17:18;9.70;;;9.00;;
635;SDS011;302;50.206;8.196;2022-08-14T04:19:43;11.00;;;10.10;;
635;SDS011;302;50.206;8.196;2022-08-14T04:22:09;10.57;;;9.70;;
635;SDS011;302;50.206;8.196;2022-08-14T04:24:34;10.03;;;9.30;;
635;SDS011;302;50.206;8.196;2022-08-14T04:27:00;11.17;;;10.27;;
635;SDS011;302;50.206;8.196;2022-08-14T04:29:25;10.47;;;9.57;;
635;SDS011;302;50.206;8.196;2022-08-14T04:31:50;10.47;;;9.57;;
635;SDS011;302;50.206;8.196;2022-08-14T04:34:16;9.98;;;9.15;;
635;SDS011;302;50.206;8.196;2022-08-14T04:36:41;10.53;;;9.73;;
635;SDS011;302;50.206;8.196;2022-08-14T04:39:25;10.55;;;9.75;;
635;SDS011;302;50.206;8.196;2022-08-14T04:42:08;10.60;;;9.70;;
635;SDS011;302;50.206;8.196;2022-08-14T04:44:52;10.18;;;9.38;;
635;SDS011;302;50.206;8.196;2022-08-14T04:47:17;10.53;;;9.73;;
635;SDS011;302;50.206;8.196;2022-08-14T04:50:02;9.77;;;8.98;;
635;SDS011;302;50.206;8.196;2022-08-14T04:52:28;10.52;;;9.73;;
635;SDS011;302;50.206;8.196;2022-08-14T04:54:53;11.47;;;10.47;;
635;SDS011;302;50.206;8.196;2022-08-14T04:57:18;11.17;;;10.33;;
635;SDS011;302;50.206;8.196;2022-08-14T04:59:43;11.13;;;10.23;;
635;SDS011;302;50.206;8.196;2022-08-14T05:02:09;11.50;;;10.60;;
635;SDS011;302;50.206;8.196;2022-08-14T05:04:34;10.20;;;9.40;;
635;SDS011;302;50.206;8.196;2022-08-14T05:06:59;10.90;;;10.00;;
635;SDS011;302;50.206;8.196;2022-08-14T05:09:25;10.33;;;9.53;;
635;SDS011;302;50.206;8.196;2022-08-14T05:11:50;11.53;;;10.63;;
635;SDS011;302;50.206;8.196;2022-08-14T05:14:15;11.33;;;10.43;;
635;SDS011;302;50.206;8.196;2022-08-14T05:16:42;11.10;;;10.25;;
635;SDS011;302;50.206;8.196;2022-08-14T05:19:08;10.97;;;10.10;;
635;SDS011;302;50.206;8.196;2022-08-14T05:21:34;11.65;;;10.75;;
635;SDS011;302;50.206;8.196;2022-08-14T05:24:00;10.50;;;9.70;;
635;SDS011;302;50.206;8.196;2022-08-14T05:26:26;10.65;;;9.80;;
635;SDS011;302;50.206;8.196;2022-08-14T05:28:51;12.00;;;11.10;;
635;SDS011;302;50.206;8.196;2022-08-14T05:31:16;10.80;;;10.00;;
635;SDS011;302;50.206;8.196;2022-08-14T05:33:42;10.67;;;9.87;;
635;SDS011;302;50.206;8.196;2022-08-14T05:36:08;11.90;;;10.90;;
635;SDS011;302;50.206;8.196;2022-08-14T05:38:37;11.50;;;10.68;;
635;SDS011;302;50.206;8.196;2022-08-14T05:41:04;10.80;;;10.00;;
635;SDS011;302;50.206;8.196;2022-08-14T05:43:29;11.30;;;10.45;;
635;SDS011;302;50.206;8.196;2022-08-14T05:45:55;11.00;;;10.20;;
635;SDS011;302;50.206;8.196;2022-08-14T05:48:20;12.20;;;11.20;;
635;SDS011;302;50.206;8.196;2022-08-14T05:50:45;11.17;;;10.27;;
635;SDS011;302;50.206;8.196;2022-08-14T05:53:10;12.30;;;11.40;;
635;SDS011;302;50.206;8.196;2022-08-14T05:55:36;10.80;;;9.90;;
635;SDS011;302;50.206;8.196;2022-08-14T05:58:03;11.37;;;10.47;;
635;SDS011;302;50.206;8.196;2022-08-14T06:00:29;11.00;;;10.20;;
635;SDS011;302;50.206;8.196;2022-08-14T06:02:54;11.88;;;10.98;;
635;SDS011;302;50.206;8.196;2022-08-14T06:05:20;11.80;;;10.87;;
635;SDS011;302;50.206;8.196;2022-08-14T06:07:45;11.80;;;10.90;;
635;SDS011;302;50.206;8.196;2022-08-14T06:10:10;11.47;;;10.57;;
635;SDS011;302;50.206;8.196;2022-08-14T06:12:36;11.70;;;10.80;;
635;SDS011;302;50.206;8.196;2022-08-14T06:15:01;11.20;;;10.40;;
635;SDS011;302;50.206;8.196;2022-08-14T06:17:26;11.90;;;10.90;;
635;SDS011;302;50.206;8.196;2022-08-14T06:19:51;12.00;;;10.93;;
635;SDS011;302;50.206;8.196;2022-08-14T06:22:17;11.63;;;10.73;;
635;SDS011;302;50.206;8.196;2022-08-14T06:24:42;11.03;;;10.13;;
635;SDS011;302;50.206;8.196;2022-08-14T06:27:07;11.85;;;10.85;;
635;SDS011;302;50.206;8.196;2022-08-14T06:29:33;11.17;;;10.30;;
635;SDS011;302;50.206;8.196;2022-08-14T06:31:58;12.23;;;11.20;;
635;SDS011;302;50.206;8.196;2022-08-14T06:34:23;11.77;;;10.77;;
635;SDS011;302;50.206;8.196;2022-08-14T06:36:48;11.80;;;10.80;;
635;SDS011;302;50.206;8.196;2022-08-14T06:39:13;12.57;;;11.57;;
635;SDS011;302;50.206;8.196;2022-08-14T06:41:39;10.63;;;9.83;;
635;SDS011;302;50.206;8.196;2022-08-14T06:44:06;12.70;;;11.77;;
635;SDS011;302;50.206;8.196;2022-08-14T06:46:31;12.40;;;11.40;;
635;SDS011;302;50.206;8.196;2022-08-14T06:48:56;11.07;;;10.27;;
635;SDS011;302;50.206;8.196;2022-08-14T06:51:21;12.38;;;11.38;;
635;SDS011;302;50.206;8.196;2022-08-14T06:53:46;11.60;;;10.70;;
635;SDS011;302;50.206;8.196;2022-08-14T06:56:12;10.47;;;9.57;;
635;SDS011;302;50.206;8.196;2022-08-14T06:58:37;10.27;;;9.47;;
635;SDS011;302;50.206;8.196;2022-08-14T07:01:02;11.77;;;10.87;;
635;SDS011;302;50.206;8.196;2022-08-14T07:03:46;11.85;;;10.88;;
635;SDS011;302;50.206;8.196;2022-08-14T07:06:30;11.18;;;10.27;;
635;SDS011;302;50.206;8.196;2022-08-14T07:08:55;11.87;;;10.87;;
635;SDS011;302;50.206;8.196;2022-08-14T07:11:20;12.40;;;11.40;;
635;SDS011;302;50.206;8.196;2022-08-14T07:13:46;10.63;;;9.82;;
635;SDS011;302;50.206;8.196;2022-08-14T07:16:11;11.10;;;10.23;;
635;SDS011;302;50.206;8.196;2022-08-14T07:18:37;10.00;;;9.30;;
635;SDS011;302;50.206;8.196;2022-08-14T07:21:03;11.20;;;10.20;;
635;SDS011;302;50.206;8.196;2022-08-14T07:23:29;11.93;;;11.13;;
635;SDS011;302;50.206;8.196;2022-08-14T07:25:55;10.70;;;9.90;;
635;SDS011;302;50.206;8.196;2022-08-14T07:28:21;11.20;;;10.40;;
635;SDS011;302;50.206;8.196;2022-08-14T07:30:48;11.15;;;10.25;;
635;SDS011;302;50.206;8.196;2022-08-14T07:33:13;10.97;;;10.17;;
635;SDS011;302;50.206;8.196;2022-08-14T07:35:39;11.10;;;10.20;;
635;SDS011;302;50.206;8.196;2022-08-14T07:38:05;11.70;;;10.70;;
635;SDS011;302;50.206;8.196;2022-08-14T07:40:30;11.70;;;10.80;;
635;SDS011;302;50.206;8.196;2022-08-14T07:42:55;9.83;;;9.13;;
635;SDS011;302;50.206;8.196;2022-08-14T07:45:21;10.93;;;10.13;;
635;SDS011;302;50.206;8.196;2022-08-14T07:47:46;10.90;;;10.10;;
635;SDS011;302;50.206;8.196;2022-08-14T07:50:12;10.33;;;9.63;;
635;SDS011;302;50.206;8.196;2022-08-14T07:52:38;10.32;;;9.52;;
635;SDS011;302;50.206;8.196;2022-08-14T07:55:04;11.37;;;10.40;;
635;SDS011;302;50.206;8.196;2022-08-14T07:57:30;11.57;;;10.68;;
635;SDS011;302;50.206;8.196;2022-08-14T07:59:55;10.77;;;9.93;;
635;SDS011;302;50.206;8.196;2022-08-14T08:02:21;10.57;;;9.80;;
635;SDS011;302;50.206;8.196;2022-08-14T08:04:49;9.73;;;9.03;;
635;SDS011;302;50.206;8.196;2022-08-14T08:07:14;11.75;;;10.85;;
635;SDS011;302;50.206;8.196;2022-08-14T08:09:42;9.60;;;8.90;;
635;SDS011;302;50.206;8.196;2022-08-14T08:12:07;10.15;;;9.35;;
635;SDS011;302;50.206;8.196;2022-08-14T08:14:34;10.20;;;9.50;;
635;SDS011;302;50.206;8.196;2022-08-14T08:17:01;9.75;;;9.05;;
635;SDS011;302;50.206;8.196;2022-08-14T08:19:26;8.90;;;8.20;;
635;SDS011;302;50.206;8.196;2022-08-14T08:21:51;9.57;;;8.90;;
635;SDS011;302;50.206;8.196;2022-08-14T08:24:18;9.90;;;9.10;;
635;SDS011;302;50.206;8.196;2022-08-14T08:26:43;10.00;;;9.20;;
635;SDS011;302;50.206;8.196;2022-08-14T08:29:09;9.90;;;9.20;;
635;SDS011;302;50.206;8.196;2022-08-14T08:31:44;10.03;;;9.13;;
635;SDS011;302;50.206;8.196;2022-08-14T08:34:10;9.30;;;8.63;;
635;SDS011;302;50.206;8.196;2022-08-14T08:36:39;9.40;;;8.70;;
635;SDS011;302;50.206;8.196;2022-08-14T08:39:05;9.35;;;8.65;;
635;SDS011;302;50.206;8.196;2022-08-14T08:42:04;9.50;;;8.90;;
635;SDS011;302;50.206;8.196;2022-08-14T08:44:27;9.53;;;8.83;;
635;SDS011;302;50.206;8.196;2022-08-14T08:46:56;9.30;;;8.63;;
635;SDS011;302;50.206;8.196;2022-08-14T08:49:33;8.17;;;7.67;;
635;SDS011;302;50.206;8.196;2022-08-14T08:52:00;9.63;;;8.83;;
635;SDS011;302;50.206;8.196;2022-08-14T08:54:28;7.70;;;7.20;;
635;SDS011;302;50.206;8.196;2022-08-14T08:56:53;8.03;;;7.43;;
635;SDS011;302;50.206;8.196;2022-08-14T08:59:30;7.57;;;6.87;;
635;SDS011;302;50.206;8.196;2022-08-14T09:01:59;8.10;;;7.57;;
635;SDS011;302;50.206;8.196;2022-08-14T09:04:25;7.67;;;7.07;;
635;SDS011;302;50.206;8.196;2022-08-14T09:06:51;8.13;;;7.60;;
635;SDS011;302;50.206;8.196;2022-08-14T09:09:26;6.43;;;6.03;;
635;SDS011;302;50.206;8.196;2022-08-14T09:11:53;7.33;;;6.83;;
635;SDS011;302;50.206;8.196;2022-08-14T09:14:19;7.20;;;6.70;;
635;SDS011;302;50.206;8.196;2022-08-14T09:16:45;7.70;;;7.10;;
635;SDS011;302;50.206;8.196;2022-08-14T09:19:10;7.30;;;6.80;;
635;SDS011;302;50.206;8.196;2022-08-14T09:21:36;7.63;;;7.13;;
635;SDS011;302;50.206;8.196;2022-08-14T09:24:03;6.90;;;6.40;;
635;SDS011;302;50.206;8.196;2022-08-14T09:26:28;7.13;;;6.63;;
635;SDS011;302;50.206;8.196;2022-08-14T09:28:54;8.53;;;7.93;;
635;SDS011;302;50.206;8.196;2022-08-14T09:31:19;6.60;;;6.10;;
635;SDS011;302;50.206;8.196;2022-08-14T09:36:34;7.03;;;6.53;;
635;SDS011;302;50.206;8.196;2022-08-14T09:39:24;6.90;;;6.50;;
635;SDS011;302;50.206;8.196;2022-08-14T09:47:38;5.17;;;4.77;;
635;SDS011;302;50.206;8.196;2022-08-14T09:50:13;4.97;;;4.60;;
635;SDS011;302;50.206;8.196;2022-08-14T09:52:44;5.43;;;5.13;;
635;SDS011;302;50.206;8.196;2022-08-14T09:55:18;5.53;;;5.13;;
635;SDS011;302;50.206;8.196;2022-08-14T09:57:46;5.27;;;4.83;;
635;SDS011;302;50.206;8.196;2022-08-14T10:00:12;5.67;;;5.17;;
635;SDS011;302;50.206;8.196;2022-08-14T10:02:55;6.43;;;5.93;;
635;SDS011;302;50.206;8.196;2022-08-14T10:05:27;6.37;;;5.77;;
635;SDS011;302;50.206;8.196;2022-08-14T10:07:54;6.40;;;6.00;;
635;SDS011;302;50.206;8.196;2022-08-14T10:10:26;5.90;;;5.40;;
635;SDS011;302;50.206;8.196;2022-08-14T10:12:52;7.27;;;6.67;;
635;SDS011;302;50.206;8.196;2022-08-14T10:15:18;6.87;;;6.40;;
635;SDS011;302;50.206;8.196;2022-08-14T10:17:43;7.30;;;6.70;;
635;SDS011;302;50.206;8.196;2022-08-14T10:20:11;6.73;;;6.33;;
635;SDS011;302;50.206;8.196;2022-08-14T10:22:37;6.30;;;5.90;;
635;SDS011;302;50.206;8.196;2022-08-14T10:25:10;6.13;;;5.63;;
635;SDS011;302;50.206;8.196;2022-08-14T10:27:36;6.00;;;5.60;;
635;SDS011;302;50.206;8.196;2022-08-14T10:30:01;5.77;;;5.37;;
635;SDS011;302;50.206;8.196;2022-08-14T10:32:28;6.00;;;5.60;;
635;SDS011;302;50.206;8.196;2022-08-14T10:35:05;6.80;;;6.27;;
635;SDS011;302;50.206;8.196;2022-08-14T10:37:53;6.73;;;6.30;;
635;SDS011;302;50.206;8.196;2022-08-14T10:40:27;6.40;;;5.90;;
635;SDS011;302;50.206;8.196;2022-08-14T10:42:56;6.57;;;6.17;;
635;SDS011;302;50.206;8.196;2022-08-14T10:45:29;6.43;;;6.03;;
635;SDS011;302;50.206;8.196;2022-08-14T10:47:55;6.23;;;5.83;;
635;SDS011;302;50.206;8.196;2022-08-14T10:50:34;6.27;;;5.87;;
635;SDS011;302;50.206;8.196;2022-08-14T10:53:00;5.73;;;5.30;;
635;SDS011;302;50.206;8.196;2022-08-14T10:55:33;6.00;;;5.40;;
635;SDS011;302;50.206;8.196;2022-08-14T10:58:03;6.10;;;5.70;;
635;SDS011;302;50.206;8.196;2022-08-14T11:00:34;6.47;;;6.00;;
635;SDS011;302;50.206;8.196;2022-08-14T11:05:25;6.53;;;6.03;;
635;SDS011;302;50.206;8.196;2022-08-14T11:10:19;6.93;;;6.33;;
635;SDS011;302;50.206;8.196;2022-08-14T11:12:49;6.90;;;6.40;;
635;SDS011;302;50.206;8.196;2022-08-14T11:15:15;6.60;;;6.10;;
635;SDS011;302;50.206;8.196;2022-08-14T11:17:41;7.43;;;6.73;;
635;SDS011;302;50.206;8.196;2022-08-14T11:20:08;6.63;;;6.23;;
635;SDS011;302;50.206;8.196;2022-08-14T11:22:34;7.13;;;6.53;;
635;SDS011;302;50.206;8.196;2022-08-14T11:25:04;6.80;;;6.30;;
635;SDS011;302;50.206;8.196;2022-08-14T11:27:30;6.40;;;6.00;;
635;SDS011;302;50.206;8.196;2022-08-14T11:29:58;7.13;;;6.63;;
635;SDS011;302;50.206;8.196;2022-08-14T11:32:24;7.07;;;6.57;;
635;SDS011;302;50.206;8.196;2022-08-14T11:34:49;6.30;;;5.80;;
635;SDS011;302;50.206;8.196;2022-08-14T11:37:16;6.43;;;6.03;;
635;SDS011;302;50.206;8.196;2022-08-14T11:39:41;6.80;;;6.40;;
635;SDS011;302;50.206;8.196;2022-08-14T11:42:07;6.13;;;5.73;;
635;SDS011;302;50.206;8.196;2022-08-14T11:44:42;5.97;;;5.57;;
635;SDS011;302;50.206;8.196;2022-08-14T11:47:07;7.30;;;6.80;;
635;SDS011;302;50.206;8.196;2022-08-14T11:49:40;6.37;;;5.90;;
635;SDS011;302;50.206;8.196;2022-08-14T11:52:06;6.53;;;6.13;;
635;SDS011;302;50.206;8.196;2022-08-14T11:54:32;6.57;;;6.00;;
635;SDS011;302;50.206;8.196;2022-08-14T11:56:59;6.27;;;5.77;;
635;SDS011;302;50.206;8.196;2022-08-14T11:59:24;5.67;;;5.27;;
635;SDS011;302;50.206;8.196;2022-08-14T12:01:49;6.40;;;5.90;;
635;SDS011;302;50.206;8.196;2022-08-14T12:04:15;6.30;;;5.90;;
635;SDS011;302;50.206;8.196;2022-08-14T12:06:43;6.70;;;6.20;;
635;SDS011;302;50.206;8.196;2022-08-14T12:09:08;6.20;;;5.80;;
635;SDS011;302;50.206;8.196;2022-08-14T12:11:37;5.72;;;5.28;;
635;SDS011;302;50.206;8.196;2022-08-14T12:14:07;6.10;;;5.70;;
635;SDS011;302;50.206;8.196;2022-08-14T12:16:32;5.70;;;5.40;;
635;SDS011;302;50.206;8.196;2022-08-14T12:18:59;6.20;;;5.80;;
635;SDS011;302;50.206;8.196;2022-08-14T12:21:25;6.27;;;5.87;;
635;SDS011;302;50.206;8.196;2022-08-14T12:26:29;7.27;;;6.67;;
635;SDS011;302;50.206;8.196;2022-08-14T12:29:04;6.23;;;5.83;;
635;SDS011;302;50.206;8.196;2022-08-14T12:31:32;6.70;;;6.20;;
635;SDS011;302;50.206;8.196;2022-08-14T12:33:59;5.90;;;5.40;;
635;SDS011;302;50.206;8.196;2022-08-14T12:36:25;6.50;;;6.10;;
635;SDS011;302;50.206;8.196;2022-08-14T12:38:54;6.93;;;6.43;;
635;SDS011;302;50.206;8.196;2022-08-14T12:41:21;7.37;;;6.77;;
635;SDS011;302;50.206;8.196;2022-08-14T12:43:50;6.23;;;5.63;;
635;SDS011;302;50.206;8.196;2022-08-14T12:48:47;5.77;;;5.27;;
635;SDS011;302;50.206;8.196;2022-08-14T12:51:16;6.70;;;6.20;;
635;SDS011;302;50.206;8.196;2022-08-14T12:53:42;6.57;;;6.00;;
635;SDS011;302;50.206;8.196;2022-08-14T12:56:07;5.60;;;5.20;;
635;SDS011;302;50.206;8.196;2022-08-14T12:58:33;6.27;;;5.83;;
635;SDS011;302;50.206;8.196;2022-08-14T13:00:58;6.30;;;5.87;;
635;SDS011;302;50.206;8.196;2022-08-14T13:03:25;5.80;;;5.50;;
635;SDS011;302;50.206;8.196;2022-08-14T13:05:50;7.03;;;6.63;;
635;SDS011;302;50.206;8.196;2022-08-14T13:08:15;6.20;;;5.80;;
635;SDS011;302;50.206;8.196;2022-08-14T13:10:41;6.20;;;5.90;;
635;SDS011;302;50.206;8.196;2022-08-14T13:13:06;5.40;;;5.10;;
635;SDS011;302;50.206;8.196;2022-08-14T13:15:33;5.87;;;5.57;;
635;SDS011;302;50.206;8.196;2022-08-14T13:17:59;6.30;;;6.00;;
635;SDS011;302;50.206;8.196;2022-08-14T13:20:28;5.90;;;5.60;;
635;SDS011;302;50.206;8.196;2022-08-14T13:22:54;6.50;;;6.18;;
635;SDS011;302;50.206;8.196;2022-08-14T13:25:20;6.72;;;6.32;;
635;SDS011;302;50.206;8.196;2022-08-14T13:27:48;5.82;;;5.53;;
635;SDS011;302;50.206;8.196;2022-08-14T13:30:14;7.35;;;6.85;;
635;SDS011;302;50.206;8.196;2022-08-14T13:32:39;6.13;;;5.82;;
635;SDS011;302;50.206;8.196;2022-08-14T13:35:08;6.55;;;6.22;;
635;SDS011;302;50.206;8.196;2022-08-14T13:37:34;6.50;;;6.10;;
635;SDS011;302;50.206;8.196;2022-08-14T13:39:59;6.05;;;5.68;;
635;SDS011;302;50.206;8.196;2022-08-14T13:42:25;5.85;;;5.53;;
635;SDS011;302;50.206;8.196;2022-08-14T13:44:52;6.55;;;6.15;;
635;SDS011;302;50.206;8.196;2022-08-14T13:47:19;6.15;;;5.85;;
635;SDS011;302;50.206;8.196;2022-08-14T13:49:48;6.47;;;5.90;;
635;SDS011;302;50.206;8.196;2022-08-14T13:52:16;6.57;;;6.18;;
635;SDS011;302;50.206;8.196;2022-08-14T13:54:43;6.50;;;6.00;;
635;SDS011;302;50.206;8.196;2022-08-14T13:57:08;7.07;;;6.68;;
635;SDS011;302;50.206;8.196;2022-08-14T13:59:35;6.82;;;6.53;;
635;SDS011;302;50.206;8.196;2022-08-14T14:02:04;6.65;;;6.25;;
635;SDS011;302;50.206;8.196;2022-08-14T14:04:29;7.15;;;6.68;;
635;SDS011;302;50.206;8.196;2022-08-14T14:06:55;6.70;;;6.40;;
635;SDS011;302;50.206;8.196;2022-08-14T14:09:25;7.18;;;6.78;;
635;SDS011;302;50.206;8.196;2022-08-14T14:11:51;7.45;;;6.95;;
635;SDS011;302;50.206;8.196;2022-08-14T14:14:19;7.07;;;6.60;;
635;SDS011;302;50.206;8.196;2022-08-14T14:16:44;6.43;;;6.13;;
635;SDS011;302;50.206;8.196;2022-08-14T14:19:10;7.50;;;7.00;;
635;SDS011;302;50.206;8.196;2022-08-14T14:21:36;7.57;;;7.18;;
635;SDS011;302;50.206;8.196;2022-08-14T14:24:02;8.45;;;7.78;;
635;SDS011;302;50.206;8.196;2022-08-14T14:26:28;7.68;;;7.18;;
635;SDS011;302;50.206;8.196;2022-08-14T14:28:54;8.02;;;7.63;;
635;SDS011;302;50.206;8.196;2022-08-14T14:31:21;8.75;;;8.25;;
635;SDS011;302;50.206;8.196;2022-08-14T14:33:49;7.53;;;7.13;;
635;SDS011;302;50.206;8.196;2022-08-14T14:36:19;8.27;;;7.78;;
635;SDS011;302;50.206;8.196;2022-08-14T14:38:44;8.75;;;8.05;;
635;SDS011;302;50.206;8.196;2022-08-14T14:41:12;8.60;;;7.93;;
635;SDS011;302;50.206;8.196;2022-08-14T14:43:39;9.15;;;8.65;;
635;SDS011;302;50.206;8.196;2022-08-14T14:46:08;8.68;;;7.97;;
635;SDS011;302;50.206;8.196;2022-08-14T14:48:33;9.55;;;8.95;;
635;SDS011;302;50.206;8.196;2022-08-14T14:51:01;8.45;;;7.95;;
635;SDS011;302;50.206;8.196;2022-08-14T14:53:27;8.80;;;8.30;;
635;SDS011;302;50.206;8.196;2022-08-14T14:55:57;9.02;;;8.52;;
635;SDS011;302;50.206;8.196;2022-08-14T14:58:24;8.75;;;8.25;;
635;SDS011;302;50.206;8.196;2022-08-14T15:00:51;8.18;;;7.75;;
635;SDS011;302;50.206;8.196;2022-08-14T15:03:18;8.93;;;8.43;;
635;SDS011;302;50.206;8.196;2022-08-14T15:05:43;9.63;;;8.80;;
635;SDS011;302;50.206;8.196;2022-08-14T15:08:08;9.53;;;9.00;;
635;SDS011;302;50.206;8.196;2022-08-14T15:10:33;8.33;;;7.83;;
635;SDS011;302;50.206;8.196;2022-08-14T15:12:59;8.73;;;8.23;;
635;SDS011;302;50.206;8.196;2022-08-14T15:15:24;8.57;;;8.07;;
635;SDS011;302;50.206;8.196;2022-08-14T15:17:49;8.27;;;7.77;;
635;SDS011;302;50.206;8.196;2022-08-14T15:20:15;8.48;;;8.02;;
635;SDS011;302;50.206;8.196;2022-08-14T15:22:40;8.70;;;8.20;;
635;SDS011;302;50.206;8.196;2022-08-14T15:25:06;8.27;;;7.65;;
635;SDS011;302;50.206;8.196;2022-08-14T15:27:33;7.00;;;6.60;;
635;SDS011;302;50.206;8.196;2022-08-14T15:29:58;7.28;;;6.88;;
635;SDS011;302;50.206;8.196;2022-08-14T15:32:23;6.20;;;5.90;;
635;SDS011;302;50.206;8.196;2022-08-14T15:34:49;8.25;;;7.75;;
635;SDS011;302;50.206;8.196;2022-08-14T15:37:14;7.82;;;7.32;;
635;SDS011;302;50.206;8.196;2022-08-14T15:39:40;7.82;;;7.32;;
635;SDS011;302;50.206;8.196;2022-08-14T15:42:05;7.75;;;7.35;;
635;SDS011;302;50.206;8.196;2022-08-14T15:44:31;7.88;;;7.38;;
635;SDS011;302;50.206;8.196;2022-08-14T15:46:56;7.50;;;7.07;;
635;SDS011;302;50.206;8.196;2022-08-14T15:49:23;7.78;;;7.38;;
635;SDS011;302;50.206;8.196;2022-08-14T15:51:51;7.82;;;7.35;;
635;SDS011;302;50.206;8.196;2022-08-14T15:54:17;7.32;;;6.93;;